createdAt,value
2022-08-22T00:02:03.362Z,24.75
2022-08-22T00:02:48.244Z,26.34
2022-08-22T00:03:06.941Z,24.81
2022-08-22T00:05:00.904Z,24.80
2022-08-22T00:08:07.951Z,24.79
2022-08-22T00:11:02.709Z,24.84
2022-08-22T00:13:45.649Z,24.83
2022-08-22T00:16:42.385Z,24.76
2022-08-22T00:19:43.904Z,24.56
2022-08-22T00:22:32.752Z,24.50
2022-08-22T00:25:25.775Z,24.56
2022-08-22T00:28:03.250Z,24.60
2022-08-22T00:30:39.819Z,24.46
2022-08-22T00:33:27.690Z,24.62
2022-08-22T00:36:21.783Z,24.63
2022-08-22T00:39:17.392Z,24.66
2022-08-22T00:42:04.539Z,24.72
2022-08-22T00:44:54.954Z,24.61
2022-08-22T00:47:36.313Z,24.59
2022-08-22T00:50:40.942Z,24.49
2022-08-22T00:53:30.889Z,24.09
2022-08-22T00:56:21.624Z,24.00
2022-08-22T00:59:23.415Z,24.08
2022-08-22T01:02:14.290Z,23.75
2022-08-22T01:05:01.904Z,23.80
2022-08-22T01:08:08.461Z,23.80
2022-08-22T01:10:54.927Z,23.64
2022-08-22T01:13:51.464Z,23.75
2022-08-22T01:16:50.372Z,23.46
2022-08-22T01:19:30.844Z,23.51
2022-08-22T01:22:11.454Z,23.33
2022-08-22T01:25:18.441Z,23.46
2022-08-22T01:27:58.298Z,23.61
2022-08-22T01:30:53.029Z,23.92
2022-08-22T01:33:46.332Z,23.88
2022-08-22T01:36:46.816Z,24.05
2022-08-22T01:39:45.337Z,24.12
2022-08-22T01:42:47.689Z,24.24
2022-08-22T01:45:34.420Z,24.18
2022-08-22T01:48:22.246Z,24.06
2022-08-22T01:50:57.513Z,23.89
2022-08-22T01:53:39.406Z,23.85
2022-08-22T01:56:14.994Z,23.83
2022-08-22T01:58:45.764Z,23.72
2022-08-22T02:01:20.438Z,23.73
2022-08-22T02:04:18.660Z,23.87
2022-08-22T02:07:02.494Z,23.85
2022-08-22T02:09:49.741Z,23.64
2022-08-22T02:12:27.336Z,23.68
2022-08-22T02:15:12.628Z,23.72
2022-08-22T02:18:12.273Z,23.90
2022-08-22T02:20:55.904Z,23.77
2022-08-22T02:23:35.541Z,23.82
2022-08-22T02:26:09.580Z,23.82
2022-08-22T02:28:59.690Z,23.80
2022-08-22T02:31:42.401Z,23.68
2022-08-22T02:34:28.746Z,23.56
2022-08-22T02:37:10.058Z,23.65
2022-08-22T02:39:42.261Z,23.59
2022-08-22T02:42:34.174Z,23.50
2022-08-22T02:45:18.812Z,23.38
2022-08-22T02:48:17.120Z,23.32
2022-08-22T02:50:54.454Z,23.43
2022-08-22T02:53:44.555Z,23.53
2022-08-22T02:56:12.946Z,23.28
2022-08-22T02:58:50.255Z,23.24
2022-08-22T03:01:27.649Z,23.17
2022-08-22T03:04:43.886Z,23.15
2022-08-22T03:07:21.398Z,23.15
2022-08-22T03:10:24.832Z,23.28
2022-08-22T03:13:04.364Z,23.29
2022-08-22T03:15:55.117Z,23.31
2022-08-22T03:18:41.296Z,23.11
2022-08-22T03:21:57.311Z,23.19
2022-08-22T03:24:34.948Z,23.11
2022-08-22T03:27:14.164Z,23.08
2022-08-22T03:30:10.088Z,23.01
2022-08-22T03:32:54.457Z,23.16
2022-08-22T03:35:29.289Z,23.31
2022-08-22T03:38:14.529Z,23.26
2022-08-22T03:40:57.568Z,23.43
2022-08-22T03:43:55.423Z,23.42
2022-08-22T03:46:23.978Z,23.17
2022-08-22T03:49:11.524Z,22.94
2022-08-22T03:51:46.783Z,22.82
2022-08-22T03:54:48.586Z,22.89
2022-08-22T03:57:58.652Z,22.88
2022-08-22T04:00:36.303Z,22.95
2022-08-22T04:03:46.495Z,23.03
2022-08-22T04:06:22.525Z,22.76
2022-08-22T04:08:53.866Z,22.93
2022-08-22T04:11:46.587Z,22.79
2022-08-22T04:14:35.692Z,22.72
2022-08-22T04:17:43.341Z,22.72
2022-08-22T04:20:33.932Z,22.73
2022-08-22T04:23:18.606Z,22.83
2022-08-22T04:25:53.439Z,22.78
2022-08-22T04:28:36.404Z,22.95
2022-08-22T04:31:10.467Z,23.05
2022-08-22T04:33:52.796Z,23.13
2022-08-22T04:36:45.903Z,23.28
2022-08-22T04:39:24.883Z,23.23
2022-08-22T04:42:28.737Z,23.25
2022-08-22T04:45:04.101Z,23.09
2022-08-22T04:47:54.484Z,23.00
2022-08-22T04:50:43.327Z,23.20
2022-08-22T04:53:27.211Z,23.26
2022-08-22T04:56:05.363Z,23.34
2022-08-22T04:58:42.005Z,23.27
2022-08-22T05:01:20.449Z,23.32
2022-08-22T05:03:59.980Z,23.36
2022-08-22T05:06:32.351Z,23.36
2022-08-22T05:09:07.215Z,23.41
2022-08-22T05:11:37.723Z,23.45
2022-08-22T05:14:14.477Z,23.45
2022-08-22T05:16:47.957Z,23.27
2022-08-22T05:19:32.315Z,23.39
2022-08-22T05:22:02.862Z,23.41
2022-08-22T05:24:42.256Z,23.38
2022-08-22T05:27:26.500Z,23.34
2022-08-22T05:30:02.861Z,23.17
2022-08-22T05:32:57.751Z,22.86
2022-08-22T05:35:39.942Z,22.74
2022-08-22T05:38:13.721Z,22.88
2022-08-22T05:40:48.073Z,22.85
2022-08-22T05:43:18.176Z,22.84
2022-08-22T05:45:47.639Z,22.88
2022-08-22T05:48:25.262Z,22.76
2022-08-22T05:51:03.683Z,22.78
2022-08-22T05:53:37.699Z,23.08
2022-08-22T05:56:22.364Z,23.16
2022-08-22T05:59:02.769Z,23.01
2022-08-22T06:02:08.516Z,23.18
2022-08-22T06:05:07.570Z,23.04
2022-08-22T06:07:44.232Z,22.91
2022-08-22T06:10:32.235Z,23.02
2022-08-22T06:13:25.542Z,23.04
2022-08-22T06:16:18.642Z,23.13
2022-08-22T06:18:49.645Z,23.07
2022-08-22T06:21:20.714Z,23.09
2022-08-22T06:23:56.641Z,23.09
2022-08-22T06:26:31.229Z,23.01
2022-08-22T06:29:01.256Z,23.03
2022-08-22T06:31:35.563Z,23.07
2022-08-22T06:34:28.599Z,22.89
2022-08-22T06:37:02.376Z,22.81
2022-08-22T06:39:34.367Z,23.05
2022-08-22T06:42:02.961Z,23.09
2022-08-22T06:44:43.047Z,22.76
2022-08-22T06:47:25.999Z,22.80
2022-08-22T06:50:13.693Z,23.09
2022-08-22T06:52:53.936Z,23.27
2022-08-22T06:55:26.317Z,23.15
2022-08-22T06:58:05.141Z,23.25
2022-08-22T07:00:35.666Z,23.28
2022-08-22T07:03:17.076Z,23.29
2022-08-22T07:05:46.357Z,23.34
2022-08-22T07:08:19.697Z,23.41
2022-08-22T07:11:22.261Z,23.59
2022-08-22T07:13:59.475Z,23.45
2022-08-22T07:16:35.725Z,23.58
2022-08-22T07:19:04.499Z,23.69
2022-08-22T07:21:46.912Z,23.97
2022-08-22T07:24:19.305Z,23.80
2022-08-22T07:27:02.843Z,23.52
2022-08-22T07:29:51.883Z,23.57
2022-08-22T07:32:43.289Z,23.57
2022-08-22T07:35:20.066Z,23.63
2022-08-22T07:38:14.219Z,23.86
2022-08-22T07:40:48.460Z,23.99
2022-08-22T07:43:29.894Z,24.05
2022-08-22T07:46:27.307Z,24.13
2022-08-22T07:49:15.268Z,24.35
2022-08-22T07:51:54.127Z,24.60
2022-08-22T07:54:45.318Z,24.45
2022-08-22T07:57:35.207Z,24.43
2022-08-22T08:00:15.047Z,24.58
2022-08-22T08:02:47.870Z,24.59
2022-08-22T08:05:17.514Z,24.76
2022-08-22T08:07:48.045Z,24.86
2022-08-22T08:10:26.484Z,25.10
2022-08-22T08:13:02.180Z,25.12
2022-08-22T08:15:34.639Z,24.94
2022-08-22T08:18:12.123Z,24.84
2022-08-22T08:20:40.745Z,24.84
2022-08-22T08:23:11.918Z,24.85
2022-08-22T08:26:12.659Z,24.96
2022-08-22T08:28:48.065Z,25.11
2022-08-22T08:31:43.161Z,25.33
2022-08-22T08:34:20.173Z,25.32
2022-08-22T08:36:57.896Z,25.36
2022-08-22T08:39:41.618Z,25.40
2022-08-22T08:42:10.244Z,25.70
2022-08-22T08:45:03.426Z,26.06
2022-08-22T08:48:05.909Z,26.40
2022-08-22T08:51:19.474Z,26.45
2022-08-22T08:54:29.629Z,26.50
2022-08-22T08:57:08.487Z,26.65
2022-08-22T09:00:02.743Z,26.81
2022-08-22T09:03:07.134Z,27.08
2022-08-22T09:05:54.103Z,27.08
2022-08-22T09:08:45.593Z,26.86
2022-08-22T09:11:48.032Z,26.79
2022-08-22T09:14:53.784Z,26.84
2022-08-22T09:17:51.776Z,26.98
2022-08-22T09:20:47.473Z,27.25
2022-08-22T09:23:48.628Z,27.35
2022-08-22T09:26:29.283Z,27.17
2022-08-22T09:29:14.584Z,27.31
2022-08-22T09:32:03.369Z,27.42
2022-08-22T09:34:45.930Z,27.04
2022-08-22T09:37:25.788Z,27.10
2022-08-22T09:40:03.990Z,26.80
2022-08-22T09:42:51.269Z,26.79
2022-08-22T09:45:53.105Z,26.67
2022-08-22T09:48:30.415Z,26.95
2022-08-22T09:51:31.760Z,27.26
2022-08-22T09:54:07.504Z,27.71
2022-08-22T09:56:59.602Z,27.89
2022-08-22T09:59:54.966Z,27.76
2022-08-22T10:02:34.379Z,27.64
2022-08-22T10:05:35.183Z,27.71
2022-08-22T10:08:11.689Z,27.55
2022-08-22T10:11:21.121Z,27.87
2022-08-22T10:14:01.237Z,27.83
2022-08-22T10:16:56.912Z,28.22
2022-08-22T10:19:53.326Z,28.35
2022-08-22T10:22:34.034Z,28.30
2022-08-22T10:25:24.418Z,28.14
2022-08-22T10:28:24.094Z,27.85
2022-08-22T10:31:12.187Z,27.94
2022-08-22T10:34:02.330Z,28.04
2022-08-22T10:37:08.329Z,28.13
2022-08-22T10:39:53.897Z,28.52
2022-08-22T10:42:31.263Z,28.77
2022-08-22T10:45:15.561Z,28.94
2022-08-22T10:47:58.798Z,29.13
2022-08-22T10:50:43.053Z,29.60
2022-08-22T10:54:02.869Z,29.56
2022-08-22T10:57:06.680Z,29.02
2022-08-22T11:00:12.283Z,29.05
2022-08-22T11:02:54.999Z,29.32
2022-08-22T11:05:35.389Z,29.14
2022-08-22T11:08:40.371Z,29.39
2022-08-22T11:11:38.316Z,29.40
2022-08-22T11:14:37.727Z,29.28
2022-08-22T11:17:34.601Z,29.45
2022-08-22T11:20:13.256Z,29.50
2022-08-22T11:23:08.575Z,29.48
2022-08-22T11:25:54.792Z,29.85
2022-08-22T11:28:51.895Z,29.96
2022-08-22T11:31:47.188Z,29.35
2022-08-22T11:34:40.184Z,29.61
2022-08-22T11:37:43.364Z,29.73
2022-08-22T11:40:33.081Z,29.76
2022-08-22T11:43:21.703Z,30.01
2022-08-22T11:45:57.019Z,30.03
2022-08-22T11:48:31.608Z,30.26
2022-08-22T11:51:25.059Z,30.16
2022-08-22T11:54:07.354Z,29.81
2022-08-22T11:56:45.141Z,29.63
2022-08-22T11:59:19.681Z,29.62
2022-08-22T12:01:59.352Z,29.25
2022-08-22T12:04:38.171Z,28.86
2022-08-22T12:07:18.873Z,29.21
2022-08-22T12:10:13.783Z,29.62
2022-08-22T12:13:02.376Z,29.57
2022-08-22T12:15:57.574Z,29.80
2022-08-22T12:18:26.620Z,29.86
2022-08-22T12:21:03.378Z,30.06
2022-08-22T12:23:57.709Z,30.19
2022-08-22T12:27:07.825Z,30.09
2022-08-22T12:30:04.406Z,30.15
2022-08-22T12:32:49.298Z,30.11
2022-08-22T12:35:29.657Z,30.08
2022-08-22T12:38:02.064Z,30.30
2022-08-22T12:40:36.991Z,30.23
2022-08-22T12:43:18.794Z,30.17
2022-08-22T12:46:06.449Z,30.34
2022-08-22T12:49:07.565Z,30.32
2022-08-22T12:52:04.585Z,30.45
2022-08-22T12:55:10.792Z,30.67
2022-08-22T12:57:58.870Z,30.77
2022-08-22T13:00:36.826Z,30.73
2022-08-22T13:03:21.632Z,30.63
2022-08-22T13:05:59.824Z,30.59
2022-08-22T13:08:47.546Z,30.11
2022-08-22T13:11:23.220Z,30.09
2022-08-22T13:14:00.951Z,30.36
2022-08-22T13:16:48.668Z,30.45
2022-08-22T13:19:25.569Z,30.77
2022-08-22T13:22:21.833Z,30.31
2022-08-22T13:24:57.547Z,30.30
2022-08-22T13:27:35.164Z,30.60
2022-08-22T13:30:12.374Z,30.81
2022-08-22T13:32:46.377Z,30.96
2022-08-22T13:35:23.881Z,30.89
2022-08-22T13:37:58.746Z,30.76
2022-08-22T13:40:30.678Z,30.61
2022-08-22T13:43:12.005Z,30.77
2022-08-22T13:45:50.079Z,30.71
2022-08-22T13:48:23.784Z,30.71
2022-08-22T13:51:14.529Z,30.65
2022-08-22T13:53:58.105Z,30.81
2022-08-22T13:56:47.259Z,31.02
2022-08-22T13:59:49.660Z,31.16
2022-08-22T14:02:36.729Z,31.04
2022-08-22T14:05:11.232Z,30.09
2022-08-22T14:08:18.391Z,30.26
2022-08-22T14:11:02.098Z,30.23
2022-08-22T14:13:44.388Z,30.20
2022-08-22T14:16:33.387Z,30.39
2022-08-22T14:19:11.063Z,30.38
2022-08-22T14:21:47.582Z,30.46
2022-08-22T14:24:19.238Z,30.35
2022-08-22T14:27:07.009Z,30.68
2022-08-22T14:29:41.717Z,30.74
2022-08-22T14:32:32.669Z,30.90
2022-08-22T14:35:21.423Z,31.08
2022-08-22T14:37:55.908Z,31.04
2022-08-22T14:40:36.265Z,30.89
2022-08-22T14:43:40.556Z,30.56
2022-08-22T14:46:18.601Z,30.41
2022-08-22T14:48:50.712Z,30.12
2022-08-22T14:51:23.648Z,30.55
2022-08-22T14:53:52.736Z,30.56
2022-08-22T14:56:27.680Z,30.40
2022-08-22T14:59:37.858Z,30.80
2022-08-22T15:02:18.718Z,30.38
2022-08-22T15:04:51.615Z,30.41
2022-08-22T15:07:26.333Z,30.73
2022-08-22T15:10:01.225Z,30.44
2022-08-22T15:12:35.618Z,30.28
2022-08-22T15:15:14.445Z,30.30
2022-08-22T15:17:46.425Z,30.52
2022-08-22T15:20:38.287Z,30.67
2022-08-22T15:23:23.246Z,30.29
2022-08-22T15:26:04.100Z,30.00
2022-08-22T15:28:53.333Z,30.41
2022-08-22T15:31:22.835Z,30.35
2022-08-22T15:33:52.366Z,30.04
2022-08-22T15:36:22.906Z,30.36
2022-08-22T15:38:56.593Z,30.68
2022-08-22T15:41:31.371Z,30.63
2022-08-22T15:44:30.947Z,30.58
2022-08-22T15:47:10.895Z,30.94
2022-08-22T15:49:58.543Z,30.62
2022-08-22T15:52:55.776Z,30.51
2022-08-22T15:55:35.432Z,30.45
2022-08-22T15:58:21.776Z,30.51
2022-08-22T16:01:05.407Z,30.86
2022-08-22T16:03:58.944Z,30.82
2022-08-22T16:06:49.268Z,30.98
2022-08-22T16:09:37.992Z,30.28
2022-08-22T16:12:27.352Z,29.92
2022-08-22T16:14:56.153Z,29.70
2022-08-22T16:17:30.712Z,29.62
2022-08-22T16:20:10.009Z,29.81
2022-08-22T16:22:58.158Z,30.41
2022-08-22T16:25:45.285Z,30.35
2022-08-22T16:28:57.241Z,30.35
2022-08-22T16:31:33.835Z,30.49
2022-08-22T16:34:17.699Z,30.55
2022-08-22T16:37:22.273Z,30.14
2022-08-22T16:39:50.748Z,30.06
2022-08-22T16:42:21.803Z,30.33
2022-08-22T16:44:57.930Z,30.05
2022-08-22T16:47:33.315Z,29.98
2022-08-22T16:50:23.373Z,30.26
2022-08-22T16:52:59.656Z,30.29
2022-08-22T16:55:35.850Z,30.44
2022-08-22T16:58:16.498Z,30.48
2022-08-22T17:00:59.444Z,30.43
2022-08-22T17:03:58.477Z,30.66
2022-08-22T17:07:14.884Z,30.44
2022-08-22T17:09:51.256Z,30.24
2022-08-22T17:12:44.405Z,30.43
2022-08-22T17:15:34.005Z,30.32
2022-08-22T17:18:27.475Z,30.40
2022-08-22T17:21:12.093Z,30.39
2022-08-22T17:23:51.699Z,30.47
2022-08-22T17:26:29.537Z,30.19
2022-08-22T17:29:39.728Z,29.48
2022-08-22T17:32:17.658Z,29.36
2022-08-22T17:34:49.593Z,29.61
2022-08-22T17:37:49.344Z,29.99
2022-08-22T17:40:28.168Z,29.69
2022-08-22T17:43:49.376Z,29.52
2022-08-22T17:47:08.013Z,29.72
2022-08-22T17:50:11.159Z,29.98
2022-08-22T17:52:57.454Z,29.99
2022-08-22T17:55:52.704Z,30.03
2022-08-22T17:58:37.505Z,29.90
2022-08-22T18:01:50.539Z,29.36
2022-08-22T18:04:43.364Z,29.50
2022-08-22T18:07:15.913Z,29.55
2022-08-22T18:10:23.304Z,29.58
2022-08-22T18:13:10.640Z,29.68
2022-08-22T18:15:57.510Z,29.76
2022-08-22T18:18:39.998Z,29.89
2022-08-22T18:21:36.917Z,29.77
2022-08-22T18:24:24.893Z,29.67
2022-08-22T18:27:01.358Z,29.52
2022-08-22T18:30:02.521Z,29.50
2022-08-22T18:32:47.872Z,29.43
2022-08-22T18:35:22.977Z,29.40
2022-08-22T18:38:00.360Z,29.41
2022-08-22T18:40:32.063Z,29.56
2022-08-22T18:43:40.734Z,29.65
2022-08-22T18:46:37.329Z,29.64
2022-08-22T18:49:24.095Z,29.60
2022-08-22T18:52:26.805Z,29.39
2022-08-22T18:54:57.993Z,29.43
2022-08-22T18:57:55.067Z,29.46
2022-08-22T19:00:46.538Z,29.37
2022-08-22T19:03:36.112Z,29.61
2022-08-22T19:06:33.076Z,29.51
2022-08-22T19:09:23.781Z,29.40
2022-08-22T19:12:14.474Z,29.22
2022-08-22T19:14:58.561Z,29.22
2022-08-22T19:17:26.993Z,28.92
2022-08-22T19:20:44.042Z,29.10
2022-08-22T19:23:34.226Z,28.76
2022-08-22T19:26:24.249Z,28.54
2022-08-22T19:28:56.922Z,28.57
2022-08-22T19:31:41.190Z,28.81
2022-08-22T19:34:32.051Z,28.98
2022-08-22T19:37:30.465Z,28.81
2022-08-22T19:40:07.116Z,28.75
2022-08-22T19:42:38.491Z,28.96
2022-08-22T19:45:18.485Z,28.71
2022-08-22T19:48:00.469Z,28.61
2022-08-22T19:50:34.038Z,28.52
2022-08-22T19:53:58.738Z,28.55
2022-08-22T19:56:48.460Z,28.52
2022-08-22T19:59:35.342Z,28.67
2022-08-22T20:02:16.479Z,28.68
2022-08-22T20:05:29.614Z,28.61
2022-08-22T20:08:26.277Z,28.66
2022-08-22T20:11:28.201Z,28.62
2022-08-22T20:14:30.701Z,28.40
2022-08-22T20:17:12.851Z,28.25
2022-08-22T20:20:16.425Z,28.32
2022-08-22T20:22:44.043Z,28.30
2022-08-22T20:25:42.957Z,28.26
2022-08-22T20:28:13.505Z,28.26
2022-08-22T20:30:57.908Z,28.09
2022-08-22T20:33:40.019Z,28.07
2022-08-22T20:36:27.412Z,28.25
2022-08-22T20:39:05.885Z,28.24
2022-08-22T20:41:38.964Z,28.08
2022-08-22T20:44:21.688Z,28.13
2022-08-22T20:47:19.514Z,28.01
2022-08-22T20:50:03.212Z,28.04
2022-08-22T20:52:54.344Z,27.82
2022-08-22T20:55:31.619Z,28.05
2022-08-22T20:58:05.082Z,28.03
2022-08-22T21:00:42.186Z,28.25
2022-08-22T21:03:15.529Z,28.23
2022-08-22T21:05:45.333Z,28.15
2022-08-22T21:08:24.679Z,28.12
2022-08-22T21:11:22.130Z,28.10
2022-08-22T21:13:51.916Z,27.86
2022-08-22T21:16:33.323Z,27.88
2022-08-22T21:19:01.970Z,27.77
2022-08-22T21:21:33.932Z,27.85
2022-08-22T21:24:06.098Z,27.80
2022-08-22T21:26:37.370Z,28.02
2022-08-22T21:29:14.672Z,28.27
2022-08-22T21:31:59.313Z,28.27
2022-08-22T21:34:52.085Z,28.20
2022-08-22T21:37:44.443Z,27.90
2022-08-22T21:40:45.330Z,27.85
2022-08-22T21:43:36.857Z,27.65
2022-08-22T21:46:06.990Z,27.50
2022-08-22T21:48:40.107Z,27.68
2022-08-22T21:51:30.680Z,27.83
2022-08-22T21:54:31.138Z,27.62
2022-08-22T21:57:15.484Z,27.65
2022-08-22T21:59:59.348Z,27.65
2022-08-22T22:02:37.495Z,27.80
2022-08-22T22:05:11.498Z,27.68
2022-08-22T22:07:42.709Z,27.69
2022-08-22T22:10:15.903Z,27.73
2022-08-22T22:12:46.641Z,27.64
2022-08-22T22:15:19.133Z,27.66
2022-08-22T22:17:47.698Z,27.38
2022-08-22T22:20:18.335Z,27.36
2022-08-22T22:22:47.471Z,27.33
2022-08-22T22:25:39.178Z,27.39
2022-08-22T22:28:25.045Z,27.31
2022-08-22T22:30:53.567Z,27.21
2022-08-22T22:33:30.549Z,27.23
2022-08-22T22:36:03.372Z,27.26
2022-08-22T22:38:31.812Z,27.05
2022-08-22T22:41:01.232Z,27.11
2022-08-22T22:43:29.713Z,27.17
2022-08-22T22:46:00.539Z,27.14
2022-08-22T22:48:29.303Z,26.84
2022-08-22T22:50:57.821Z,26.85
2022-08-22T22:53:33.646Z,27.05
2022-08-22T22:56:11.215Z,27.00
2022-08-22T22:58:40.824Z,26.95
2022-08-22T23:01:16.195Z,27.17
2022-08-22T23:03:45.638Z,26.94
2022-08-22T23:06:17.525Z,27.15
2022-08-22T23:08:47.127Z,27.10
2022-08-22T23:11:20.165Z,27.16
2022-08-22T23:13:48.865Z,27.09
2022-08-22T23:16:24.517Z,27.07
2022-08-22T23:18:53.025Z,26.97
2022-08-22T23:21:28.648Z,27.02
2022-08-22T23:23:59.522Z,26.81
2022-08-22T23:26:28.974Z,26.63
2022-08-22T23:28:57.762Z,26.60
2022-08-22T23:31:37.004Z,26.58
2022-08-22T23:34:11.662Z,26.44
2022-08-22T23:36:42.542Z,26.22
2022-08-22T23:39:13.493Z,26.18
2022-08-22T23:41:42.731Z,26.16
2022-08-22T23:44:13.517Z,26.24
2022-08-22T23:46:43.187Z,26.21
2022-08-22T23:49:12.730Z,26.20
2022-08-22T23:51:42.317Z,26.23
2022-08-22T23:54:11.521Z,26.28
2022-08-22T23:56:58.369Z,26.28
2022-08-22T23:59:34.888Z,26.23
